Time;durP1;ratioP1;P1;durP2;ratioP2;P2;SDS_P1;SDS_P2;PMS_P1;PMS_P2;Temp;Humidity;BMP_temperature;BMP_pressure;BME280_temperature;BME280_humidity;BME280_pressure;Samples;Min_cycle;Max_cycle;Signal;HPM_P1;HPM_P2
2021/05/22 00:04:48;;;;;;;;;;;10.70;99.90;;;;;;10582253;28;19974;-61
2021/05/22 00:09:49;;;;;;;;;;;10.70;99.90;;;;;;10580931;28;19923;-60
2021/05/22 00:14:50;;;;;;;;;;;10.70;99.90;;;;;;10581237;28;20458;-59
2021/05/22 00:19:52;;;;;;;;;;;10.80;99.90;;;;;;10581373;28;20383;-60
2021/05/22 00:24:53;;;;;;;;;;;10.80;99.90;;;;;;10581743;28;20339;-60
2021/05/22 00:29:54;;;;;;;;;;;10.80;99.90;;;;;;10581216;28;19924;-59
2021/05/22 00:34:56;;;;;;;;;;;10.80;99.90;;;;;;10581032;28;20368;-59
2021/05/22 00:39:57;;;;;;;;;;;10.90;99.90;;;;;;10580536;28;19928;-60
2021/05/22 00:45:04;;;;;;;;;;;10.90;99.90;;;;;;10580671;28;19927;-60
2021/05/22 00:50:08;;;;;;;;;;;10.80;99.90;;;;;;10580403;28;19927;-60
2021/05/22 00:55:09;;;;;;;;;;;10.70;99.90;;;;;;10580892;28;19924;-60
2021/05/22 01:00:12;;;;;;;;;;;10.50;99.90;;;;;;10579426;28;20355;-60
2021/05/22 01:05:14;;;;;;;;;;;10.40;99.90;;;;;;10581331;28;19927;-60
2021/05/22 01:10:16;;;;;;;;;;;10.20;99.90;;;;;;10578236;28;19928;-61
2021/05/22 01:15:20;;;;;;;;;;;10.10;99.90;;;;;;10580170;28;19928;-60
2021/05/22 01:20:28;;;;;;;;;;;10.00;99.90;;;;;;10580341;28;19928;-60
2021/05/22 01:25:31;;;;;;;;;;;9.80;99.90;;;;;;10579598;28;19924;-61
2021/05/22 01:30:33;;;;;;;;;;;9.70;99.90;;;;;;10578598;28;19963;-60
2021/05/22 01:35:34;;;;;;;;;;;9.60;99.90;;;;;;10576582;28;20277;-60
2021/05/22 01:40:36;;;;;;;;;;;9.50;99.90;;;;;;10573850;28;20010;-59
2021/05/22 01:45:40;;;;;;;;;;;9.40;99.90;;;;;;10574026;28;20082;-60
2021/05/22 01:50:43;;;;;;;;;;;9.40;99.90;;;;;;10575468;28;20152;-60
2021/05/22 01:55:46;;;;;;;;;;;9.40;99.90;;;;;;10578100;28;19923;-61
2021/05/22 02:00:48;;;;;;;;;;;9.20;99.90;;;;;;10577330;28;19935;-60
2021/05/22 02:05:51;;;;;;;;;;;9.40;99.90;;;;;;10577898;28;20030;-62
2021/05/22 02:10:54;;;;;;;;;;;9.40;99.90;;;;;;10577903;28;20068;-61
2021/05/22 02:15:57;;;;;;;;;;;9.40;99.90;;;;;;10578915;28;19981;-61
2021/05/22 02:20:59;;;;;;;;;;;9.30;99.90;;;;;;10577500;28;20085;-62
2021/05/22 02:26:01;;;;;;;;;;;9.30;99.90;;;;;;10578767;28;20002;-62
2021/05/22 02:31:02;;;;;;;;;;;9.20;99.90;;;;;;10578616;28;20495;-62
2021/05/22 02:36:04;;;;;;;;;;;9.20;99.90;;;;;;10578204;28;20440;-62
2021/05/22 02:41:07;;;;;;;;;;;8.60;99.90;;;;;;10578347;28;19931;-62
2021/05/22 02:46:09;;;;;;;;;;;9.30;99.90;;;;;;10577720;28;20012;-62
2021/05/22 02:51:11;;;;;;;;;;;9.30;99.90;;;;;;10577840;28;19930;-62
2021/05/22 02:56:14;;;;;;;;;;;9.30;99.90;;;;;;10577212;28;20456;-62
2021/05/22 03:01:16;;;;;;;;;;;8.80;99.90;;;;;;10578037;28;20041;-62
2021/05/22 03:06:17;;;;;;;;;;;9.30;99.90;;;;;;10576976;28;20454;-63
2021/05/22 03:11:20;;;;;;;;;;;9.30;99.90;;;;;;10577343;28;19970;-64
2021/05/22 03:16:21;;;;;;;;;;;9.30;99.90;;;;;;10577151;28;19932;-63
2021/05/22 03:21:22;;;;;;;;;;;9.30;99.90;;;;;;10576924;28;20375;-61
2021/05/22 03:26:24;;;;;;;;;;;9.30;99.90;;;;;;10576968;28;19971;-63
2021/05/22 03:31:26;;;;;;;;;;;7.10;99.90;;;;;;10581939;28;19928;-62
2021/05/22 03:36:27;;;;;;;;;;;9.30;99.90;;;;;;10585152;28;19931;-62
2021/05/22 03:41:29;;;;;;;;;;;9.30;99.90;;;;;;10584466;28;19974;-63
2021/05/22 03:46:30;;;;;;;;;;;9.30;99.90;;;;;;10584683;28;20007;-63
2021/05/22 03:51:31;;;;;;;;;;;9.30;99.90;;;;;;10584565;28;19975;-61
2021/05/22 03:56:33;;;;;;;;;;;9.40;99.90;;;;;;10583647;28;20066;-60
2021/05/22 04:01:34;;;;;;;;;;;8.30;99.90;;;;;;10583755;28;19977;-60
2021/05/22 04:06:36;;;;;;;;;;;9.50;99.90;;;;;;10583807;28;20377;-61
2021/05/22 04:11:38;;;;;;;;;;;9.70;99.90;;;;;;10583940;28;20387;-61
2021/05/22 04:16:39;;;;;;;;;;;9.70;99.90;;;;;;10583394;28;19928;-62
2021/05/22 04:21:40;;;;;;;;;;;9.70;99.90;;;;;;10583286;28;19979;-59
2021/05/22 04:26:42;;;;;;;;;;;9.80;99.90;;;;;;10583235;28;20454;-60
2021/05/22 04:31:43;;;;;;;;;;;8.20;99.90;;;;;;10582070;28;20339;-60
2021/05/22 04:36:44;;;;;;;;;;;9.80;99.90;;;;;;10582325;28;19963;-60
2021/05/22 04:41:47;;;;;;;;;;;9.90;99.90;;;;;;10580262;28;19932;-62
2021/05/22 04:46:48;;;;;;;;;;;9.90;99.90;;;;;;10579290;28;19927;-61
2021/05/22 04:51:49;;;;;;;;;;;9.90;99.90;;;;;;10581676;28;19928;-60
2021/05/22 04:56:51;;;;;;;;;;;9.90;99.90;;;;;;10581086;28;19967;-61
2021/05/22 05:01:52;;;;;;;;;;;9.90;99.90;;;;;;10581161;28;19932;-61
2021/05/22 05:06:53;;;;;;;;;;;8.70;99.90;;;;;;10579902;28;20015;-61
2021/05/22 05:11:55;;;;;;;;;;;8.60;99.90;;;;;;10581002;28;20019;-61
2021/05/22 05:16:56;;;;;;;;;;;10.00;99.90;;;;;;10579605;28;19934;-61
2021/05/22 05:21:58;;;;;;;;;;;10.20;99.90;;;;;;10579510;28;19959;-61
2021/05/22 05:27:00;;;;;;;;;;;10.20;99.90;;;;;;10579170;28;20466;-61
2021/05/22 05:32:01;;;;;;;;;;;8.30;99.90;;;;;;10579022;28;19963;-60
2021/05/22 05:37:02;;;;;;;;;;;10.20;99.90;;;;;;10578915;28;20026;-60
2021/05/22 05:42:04;;;;;;;;;;;10.70;99.90;;;;;;10578280;28;20011;-61
2021/05/22 05:47:06;;;;;;;;;;;10.30;99.90;;;;;;10576870;28;20014;-61
2021/05/22 05:52:08;;;;;;;;;;;10.20;99.90;;;;;;10577162;28;20007;-61
2021/05/22 05:57:10;;;;;;;;;;;10.30;99.90;;;;;;10576422;28;19950;-60
2021/05/22 06:02:11;;;;;;;;;;;10.20;99.90;;;;;;10576900;28;19932;-60
2021/05/22 06:07:13;;;;;;;;;;;10.30;99.90;;;;;;10576779;28;19975;-60
2021/05/22 06:12:15;;;;;;;;;;;10.30;99.90;;;;;;10575973;28;20355;-60
2021/05/22 06:17:16;;;;;;;;;;;10.30;99.90;;;;;;10576050;28;19976;-60
2021/05/22 06:22:17;;;;;;;;;;;10.30;99.90;;;;;;10576494;28;19963;-60
2021/05/22 06:27:19;;;;;;;;;;;9.90;99.90;;;;;;10574113;28;20022;-61
2021/05/22 06:32:20;;;;;;;;;;;10.50;99.90;;;;;;10574829;28;19933;-61
2021/05/22 06:37:23;;;;;;;;;;;10.40;99.90;;;;;;10573589;28;19928;-61
2021/05/22 06:42:30;;;;;;;;;;;9.80;99.90;;;;;;10574255;28;19924;-59
2021/05/22 06:47:31;;;;;;;;;;;10.60;99.90;;;;;;10573926;28;20026;-60
2021/05/22 06:52:32;;;;;;;;;;;10.70;99.90;;;;;;10574040;28;20101;-60
2021/05/22 06:57:34;;;;;;;;;;;10.60;99.90;;;;;;10574084;28;19999;-60
2021/05/22 07:02:35;;;;;;;;;;;9.50;99.90;;;;;;10574541;28;19978;-61
2021/05/22 07:07:38;;;;;;;;;;;10.60;99.90;;;;;;10574158;28;20371;-61
2021/05/22 07:12:40;;;;;;;;;;;10.60;99.90;;;;;;10573996;28;19981;-61
2021/05/22 07:17:42;;;;;;;;;;;10.60;99.90;;;;;;10576647;28;20014;-60
2021/05/22 07:22:43;;;;;;;;;;;10.80;99.90;;;;;;10576251;28;20389;-60
2021/05/22 07:27:45;;;;;;;;;;;11.10;99.90;;;;;;10576455;28;20003;-60
2021/05/22 07:32:46;;;;;;;;;;;10.90;99.90;;;;;;10576566;28;19924;-61
2021/05/22 07:37:47;;;;;;;;;;;11.00;99.90;;;;;;10574265;28;19932;-60
2021/05/22 07:42:50;;;;;;;;;;;11.20;99.90;;;;;;10573882;28;19967;-61
2021/05/22 07:47:51;;;;;;;;;;;11.30;99.90;;;;;;10574564;28;19944;-61
2021/05/22 07:52:52;;;;;;;;;;;11.40;99.90;;;;;;10572964;28;20055;-61
2021/05/22 07:57:54;;;;;;;;;;;11.50;99.90;;;;;;10574363;28;19928;-61
2021/05/22 08:02:55;;;;;;;;;;;11.50;99.90;;;;;;10574420;28;19959;-61
2021/05/22 08:07:56;;;;;;;;;;;11.70;99.90;;;;;;10573071;28;20291;-61
2021/05/22 08:12:59;;;;;;;;;;;11.80;99.90;;;;;;10573070;28;19993;-61
2021/05/22 08:18:00;;;;;;;;;;;11.80;99.90;;;;;;10577005;28;19975;-60
2021/05/22 08:23:01;;;;;;;;;;;13.60;99.90;;;;;;10580408;28;19924;-60
2021/05/22 08:28:03;;;;;;;;;;;11.60;99.90;;;;;;10579715;28;20659;-61
2021/05/22 08:33:04;;;;;;;;;;;11.50;99.90;;;;;;10580340;28;20018;-61
2021/05/22 08:38:05;;;;;;;;;;;11.50;99.90;;;;;;10580715;28;20006;-61
2021/05/22 08:43:07;;;;;;;;;;;11.50;99.90;;;;;;10580995;28;19974;-60
2021/05/22 08:48:09;;;;;;;;;;;11.40;99.90;;;;;;10580057;28;20038;-61
2021/05/22 08:53:10;;;;;;;;;;;11.50;99.90;;;;;;10580592;28;19923;-60
2021/05/22 08:58:12;;;;;;;;;;;11.50;99.90;;;;;;10579142;28;20062;-59
2021/05/22 09:03:13;;;;;;;;;;;11.60;99.90;;;;;;10579659;28;19950;-59
2021/05/22 09:08:15;;;;;;;;;;;11.20;99.90;;;;;;10578967;28;19982;-60
2021/05/22 09:13:21;;;;;;;;;;;10.90;99.90;;;;;;10579722;28;19928;-59
2021/05/22 09:18:24;;;;;;;;;;;10.90;99.90;;;;;;10579207;28;19990;-61
2021/05/22 09:23:26;;;;;;;;;;;11.00;99.90;;;;;;10578406;28;20398;-61
2021/05/22 09:28:28;;;;;;;;;;;11.30;99.90;;;;;;10578810;28;20338;-63
2021/05/22 09:33:30;;;;;;;;;;;11.70;99.90;;;;;;10577962;28;19924;-62
2021/05/22 09:38:35;;;;;;;;;;;11.90;99.90;;;;;;10578233;28;20368;-62
2021/05/22 09:43:37;;;;;;;;;;;10.00;99.90;;;;;;10578595;28;19923;-62
2021/05/22 09:48:38;;;;;;;;;;;12.30;99.90;;;;;;10577816;28;20007;-62
2021/05/22 09:53:39;;;;;;;;;;;12.20;99.90;;;;;;10577854;28;19937;-62
2021/05/22 09:58:42;;;;;;;;;;;11.90;99.90;;;;;;10577847;28;20023;-62
2021/05/22 10:03:43;;;;;;;;;;;11.70;99.90;;;;;;10576680;28;20042;-60
2021/05/22 10:08:45;;;;;;;;;;;11.70;99.90;;;;;;10576390;28;19928;-60
2021/05/22 10:13:47;;;;;;;;;;;12.20;99.90;;;;;;10575762;28;20351;-60
2021/05/22 10:18:48;;;;;;;;;;;11.40;99.90;;;;;;10576628;28;19928;-59
2021/05/22 10:23:49;;;;;;;;;;;11.50;99.90;;;;;;10575201;28;19996;-60
2021/05/22 10:28:51;;;;;;;;;;;11.60;99.90;;;;;;10575509;28;20022;-60
2021/05/22 10:33:52;;;;;;;;;;;9.80;99.90;;;;;;10575317;28;20098;-61
2021/05/22 10:38:53;;;;;;;;;;;11.60;99.90;;;;;;10574755;28;20010;-60
2021/05/22 10:43:57;;;;;;;;;;;11.50;99.90;;;;;;10576041;28;20380;-60
2021/05/22 10:48:59;;;;;;;;;;;11.70;99.90;;;;;;10574987;28;20018;-60
2021/05/22 10:54:02;;;;;;;;;;;11.90;99.90;;;;;;10575343;28;19928;-59
2021/05/22 10:59:13;;;;;;;;;;;12.20;99.90;;;;;;10575654;28;19927;-60
2021/05/22 11:04:25;;;;;;;;;;;11.70;99.90;;;;;;10575162;28;19931;-58
2021/05/22 11:09:51;;;;;;;;;;;12.20;99.90;;;;;;10575274;28;19923;-61
2021/05/22 11:14:54;;;;;;;;;;;10.30;99.90;;;;;;10574288;28;19923;-61
2021/05/22 11:20:13;;;;;;;;;;;12.40;99.90;;;;;;10573423;28;19950;-59
2021/05/22 11:25:16;;;;;;;;;;;10.70;99.90;;;;;;10574186;28;19973;-60
2021/05/22 11:30:18;;;;;;;;;;;13.60;99.90;;;;;;10574166;28;20008;-60
2021/05/22 11:35:45;;;;;;;;;;;13.60;99.90;;;;;;10574593;28;19967;-60
2021/05/22 11:40:47;;;;;;;;;;;12.10;99.90;;;;;;10574578;28;19927;-59
2021/05/22 11:45:50;;;;;;;;;;;13.30;99.90;;;;;;10574245;28;19928;-58
2021/05/22 11:50:52;;;;;;;;;;;13.40;99.90;;;;;;10564005;28;19928;-59
2021/05/22 11:55:56;;;;;;;;;;;11.80;99.90;;;;;;10582737;28;19928;-61
2021/05/22 12:01:07;;;;;;;;;;;10.30;99.90;;;;;;10582402;28;19934;-61
2021/05/22 12:06:08;;;;;;;;;;;13.70;99.90;;;;;;10582087;28;20006;-60
2021/05/22 12:11:10;;;;;;;;;;;13.90;99.90;;;;;;10580873;28;19928;-61
2021/05/22 12:16:15;;;;;;;;;;;13.80;99.90;;;;;;10578849;28;19932;-60
2021/05/22 12:21:37;;;;;;;;;;;13.90;99.90;;;;;;10579252;28;20417;-61
2021/05/22 12:26:38;;;;;;;;;;;11.50;99.90;;;;;;10572455;28;20356;-61
2021/05/22 12:31:46;;;;;;;;;;;12.30;99.90;;;;;;10578516;28;19924;-60
2021/05/22 12:36:58;;;;;;;;;;;14.40;99.90;;;;;;10578910;28;20368;-61
2021/05/22 12:41:59;;;;;;;;;;;14.50;99.90;;;;;;10578393;28;19970;-61
2021/05/22 12:47:01;;;;;;;;;;;15.00;99.90;;;;;;10580279;28;19928;-59
2021/05/22 12:52:04;;;;;;;;;;;16.00;97.80;;;;;;10580236;28;20030;-59
2021/05/22 12:57:06;;;;;;;;;;;16.70;95.40;;;;;;10580161;28;19923;-60
2021/05/22 13:02:16;;;;;;;;;;;17.10;93.30;;;;;;10578876;28;19927;-60
2021/05/22 13:07:20;;;;;;;;;;;17.60;92.40;;;;;;10579643;28;19927;-59
2021/05/22 13:12:22;;;;;;;;;;;18.00;90.30;;;;;;10579477;28;19923;-59
2021/05/22 13:17:24;;;;;;;;;;;18.10;87.00;;;;;;10579016;28;19934;-60
2021/05/22 13:22:27;;;;;;;;;;;17.50;85.60;;;;;;10578747;28;20371;-60
2021/05/22 13:27:28;;;;;;;;;;;17.00;86.00;;;;;;10578385;28;19927;-61
2021/05/22 13:32:30;;;;;;;;;;;16.70;89.30;;;;;;10576601;28;19924;-63
2021/05/22 13:37:31;;;;;;;;;;;17.20;87.30;;;;;;10576723;28;19928;-62
2021/05/22 13:42:33;;;;;;;;;;;17.60;85.50;;;;;;10567061;28;19973;-60
2021/05/22 13:47:37;;;;;;;;;;;17.80;81.90;;;;;;10577430;28;19924;-61
2021/05/22 13:52:38;;;;;;;;;;;18.00;82.00;;;;;;10577442;28;19928;-60
2021/05/22 13:57:39;;;;;;;;;;;18.10;79.30;;;;;;10577089;28;19930;-60
2021/05/22 14:02:41;;;;;;;;;;;18.00;77.50;;;;;;10576650;28;19971;-59
2021/05/22 14:07:43;;;;;;;;;;;17.60;79.10;;;;;;10576472;28;19927;-60
2021/05/22 14:12:44;;;;;;;;;;;17.70;80.50;;;;;;10577333;28;19928;-62
2021/05/22 14:17:46;;;;;;;;;;;18.00;79.40;;;;;;10576914;28;20023;-60
2021/05/22 14:22:47;;;;;;;;;;;18.20;75.20;;;;;;10576137;28;20029;-61
2021/05/22 14:27:48;;;;;;;;;;;18.00;74.70;;;;;;10576755;28;20011;-61
2021/05/22 14:32:50;;;;;;;;;;;18.10;76.50;;;;;;10576039;28;19972;-60
2021/05/22 14:37:52;;;;;;;;;;;18.10;72.90;;;;;;10576091;28;20383;-61
2021/05/22 14:42:54;;;;;;;;;;;17.60;75.40;;;;;;10575686;28;19923;-62
2021/05/22 14:47:55;;;;;;;;;;;17.50;77.70;;;;;;10574944;28;19923;-62
2021/05/22 14:52:58;;;;;;;;;;;17.90;77.60;;;;;;10573951;28;21248;-63
2021/05/22 14:58:00;;;;;;;;;;;18.50;76.10;;;;;;10574432;28;19991;-61
2021/05/22 15:03:02;;;;;;;;;;;18.60;72.10;;;;;;10574643;28;19935;-61
2021/05/22 15:08:04;;;;;;;;;;;17.80;73.90;;;;;;10574633;28;19979;-61
2021/05/22 15:13:05;;;;;;;;;;;17.40;76.60;;;;;;10573879;28;20418;-61
2021/05/22 15:18:07;;;;;;;;;;;17.10;78.00;;;;;;10574036;28;19924;-61
2021/05/22 15:23:08;;;;;;;;;;;16.90;79.40;;;;;;10572984;28;19928;-61
2021/05/22 15:28:10;;;;;;;;;;;16.50;80.80;;;;;;10581568;28;19924;-60
2021/05/22 15:33:12;;;;;;;;;;;16.10;82.50;;;;;;10583843;28;19927;-60
2021/05/22 15:38:13;;;;;;;;;;;16.00;84.80;;;;;;10583005;28;20356;-61
2021/05/22 15:43:15;;;;;;;;;;;15.90;83.20;;;;;;10582820;28;20015;-62
2021/05/22 15:59:01;;;;;;;;;;;15.20;86.10;;;;;;10582281;28;19928;-60
2021/05/22 16:04:19;;;;;;;;;;;15.50;87.10;;;;;;10582757;28;19949;-60
2021/05/22 16:09:20;;;;;;;;;;;14.90;89.10;;;;;;10581646;28;19931;-61
2021/05/22 16:14:22;;;;;;;;;;;15.00;89.00;;;;;;10581208;28;20337;-61
2021/05/22 16:19:24;;;;;;;;;;;14.80;89.00;;;;;;10581883;28;19935;-62
2021/05/22 16:24:25;;;;;;;;;;;14.40;90.20;;;;;;10580055;28;20359;-61
2021/05/22 16:29:26;;;;;;;;;;;14.20;91.40;;;;;;10580705;28;19923;-61
2021/05/22 16:34:29;;;;;;;;;;;14.30;91.60;;;;;;10580367;28;19966;-60
2021/05/22 16:39:30;;;;;;;;;;;14.00;95.10;;;;;;10577856;28;20284;-60
2021/05/22 16:44:31;;;;;;;;;;;13.70;97.80;;;;;;10579665;28;19938;-60
2021/05/22 16:49:35;;;;;;;;;;;13.30;99.80;;;;;;10580481;28;19923;-60
2021/05/22 16:54:36;;;;;;;;;;;13.00;99.90;;;;;;10579250;28;19931;-62
2021/05/22 16:59:37;;;;;;;;;;;12.70;99.90;;;;;;10580420;28;20031;-62
2021/05/22 17:04:39;;;;;;;;;;;12.40;99.90;;;;;;10579382;28;20023;-62
2021/05/22 17:09:40;;;;;;;;;;;12.30;99.90;;;;;;10579651;28;19923;-62
2021/05/22 17:14:42;;;;;;;;;;;12.20;99.90;;;;;;10579516;28;20028;-63
2021/05/22 17:19:44;;;;;;;;;;;12.00;99.90;;;;;;10579295;28;20274;-63
2021/05/22 17:24:45;;;;;;;;;;;11.90;99.90;;;;;;10578506;28;19993;-62
2021/05/22 17:29:47;;;;;;;;;;;11.80;99.90;;;;;;10578517;28;19932;-62
2021/05/22 17:34:49;;;;;;;;;;;11.80;99.90;;;;;;10560721;28;20014;-61
2021/05/22 17:39:50;;;;;;;;;;;11.80;99.90;;;;;;10577739;28;19928;-61
2021/05/22 17:44:51;;;;;;;;;;;11.70;99.90;;;;;;10578513;28;19935;-61
2021/05/22 17:49:53;;;;;;;;;;;11.60;99.90;;;;;;10578242;28;19928;-61
2021/05/22 17:54:54;;;;;;;;;;;11.40;99.90;;;;;;10577688;28;19934;-61
2021/05/22 17:59:55;;;;;;;;;;;11.30;99.90;;;;;;10577959;28;20010;-60
2021/05/22 18:04:57;;;;;;;;;;;13.00;99.90;;;;;;10577069;28;19969;-61
2021/05/22 18:09:58;;;;;;;;;;;11.00;99.90;;;;;;10577953;28;19923;-60
2021/05/22 18:14:59;;;;;;;;;;;10.80;99.90;;;;;;10577188;28;19931;-60
2021/05/22 18:20:01;;;;;;;;;;;10.90;99.90;;;;;;10576726;28;19923;-61
2021/05/22 18:25:03;;;;;;;;;;;13.30;99.90;;;;;;10576005;28;19928;-62
2021/05/22 18:30:05;;;;;;;;;;;10.80;99.90;;;;;;10575821;28;20333;-62
2021/05/22 18:35:09;;;;;;;;;;;10.80;99.90;;;;;;10576303;28;19972;-61
2021/05/22 18:40:11;;;;;;;;;;;10.70;99.90;;;;;;10575770;28;19998;-62
2021/05/22 18:45:13;;;;;;;;;;;10.60;99.90;;;;;;10575781;28;19953;-63
2021/05/22 18:50:17;;;;;;;;;;;10.60;99.90;;;;;;10575904;28;20408;-63
2021/05/22 18:55:18;;;;;;;;;;;10.60;99.90;;;;;;10575143;28;19928;-61
2021/05/22 19:00:19;;;;;;;;;;;10.60;99.90;;;;;;10575056;28;19951;-61
2021/05/22 19:05:21;;;;;;;;;;;10.70;99.90;;;;;;10574801;28;19930;-61
2021/05/22 19:10:24;;;;;;;;;;;10.60;99.90;;;;;;10571341;28;19934;-61
2021/05/22 19:15:33;;;;;;;;;;;10.70;99.90;;;;;;10573933;28;19935;-61
2021/05/22 19:20:36;;;;;;;;;;;10.60;99.90;;;;;;10574283;28;20422;-61
2021/05/22 19:25:37;;;;;;;;;;;10.60;99.90;;;;;;10575221;28;19934;-60
2021/05/22 19:30:39;;;;;;;;;;;10.50;99.90;;;;;;10573585;28;20383;-62
2021/05/22 19:35:41;;;;;;;;;;;10.50;99.90;;;;;;10573749;28;19923;-61
2021/05/22 19:40:42;;;;;;;;;;;10.60;99.90;;;;;;10572915;28;20299;-61
2021/05/22 19:45:43;;;;;;;;;;;10.50;99.90;;;;;;10573323;28;19979;-61
2021/05/22 19:50:45;;;;;;;;;;;10.50;99.90;;;;;;10573222;28;20324;-61
2021/05/22 19:55:46;;;;;;;;;;;10.50;99.90;;;;;;10573085;28;19977;-63
2021/05/22 20:00:48;;;;;;;;;;;10.50;99.90;;;;;;10573673;28;19928;-62
2021/05/22 20:05:50;;;;;;;;;;;10.50;99.90;;;;;;10572250;28;20020;-62
2021/05/22 20:10:52;;;;;;;;;;;8.00;99.90;;;;;;10572925;28;19934;-61
2021/05/22 20:15:53;;;;;;;;;;;10.50;99.90;;;;;;10578944;28;20614;-62
2021/05/22 20:20:55;;;;;;;;;;;10.40;99.90;;;;;;10580020;28;19931;-62
2021/05/22 20:25:57;;;;;;;;;;;10.90;99.90;;;;;;10580014;28;19931;-61
2021/05/22 20:31:03;;;;;;;;;;;10.40;99.90;;;;;;10580127;28;20057;-61
2021/05/22 20:36:06;;;;;;;;;;;10.30;99.90;;;;;;10580438;28;19934;-61
2021/05/22 20:41:07;;;;;;;;;;;10.30;99.90;;;;;;10579805;28;20026;-60
2021/05/22 20:46:08;;;;;;;;;;;10.30;99.90;;;;;;10578391;28;19930;-61
2021/05/22 20:51:10;;;;;;;;;;;10.30;99.90;;;;;;10580051;28;19959;-61
2021/05/22 20:56:12;;;;;;;;;;;10.20;99.90;;;;;;10582333;28;20011;-61
2021/05/22 21:01:13;;;;;;;;;;;9.60;99.90;;;;;;10581690;28;20008;-61
2021/05/22 21:06:15;;;;;;;;;;;10.30;99.90;;;;;;10580784;28;19935;-61
2021/05/22 21:11:16;;;;;;;;;;;10.30;99.90;;;;;;10581724;28;19928;-61
2021/05/22 21:16:18;;;;;;;;;;;10.30;99.90;;;;;;10581680;28;19946;-61
2021/05/22 21:21:20;;;;;;;;;;;10.20;99.90;;;;;;10584042;28;19931;-61
2021/05/22 21:26:21;;;;;;;;;;;12.10;99.90;;;;;;10580223;28;20388;-61
2021/05/22 21:31:23;;;;;;;;;;;10.20;99.90;;;;;;10580668;28;19935;-62
2021/05/22 21:36:24;;;;;;;;;;;10.20;99.90;;;;;;10580475;28;19935;-61
2021/05/22 21:41:26;;;;;;;;;;;10.20;99.90;;;;;;10579659;28;20352;-62
2021/05/22 21:46:27;;;;;;;;;;;10.10;99.90;;;;;;10578058;28;20048;-61
2021/05/22 21:51:29;;;;;;;;;;;10.00;99.90;;;;;;10580118;28;20774;-62
2021/05/22 21:56:31;;;;;;;;;;;10.00;99.90;;;;;;10578729;28;20337;-61
2021/05/22 22:01:34;;;;;;;;;;;9.90;99.90;;;;;;10582243;28;19931;-61
2021/05/22 22:06:36;;;;;;;;;;;9.90;99.90;;;;;;10577403;28;19927;-61
2021/05/22 22:11:38;;;;;;;;;;;9.90;99.90;;;;;;10577725;28;19923;-61
2021/05/22 22:16:39;;;;;;;;;;;9.90;99.90;;;;;;10576704;28;19924;-63
2021/05/22 22:21:42;;;;;;;;;;;9.90;99.90;;;;;;10578325;28;20393;-62
2021/05/22 22:26:44;;;;;;;;;;;9.80;99.90;;;;;;10577711;28;19973;-61
2021/05/22 22:31:45;;;;;;;;;;;9.70;99.90;;;;;;10577621;28;20390;-62
2021/05/22 22:36:47;;;;;;;;;;;9.60;99.90;;;;;;10576358;28;19923;-62
2021/05/22 22:41:48;;;;;;;;;;;9.50;99.90;;;;;;10576854;28;19923;-62
2021/05/22 22:46:50;;;;;;;;;;;9.30;99.90;;;;;;10574718;28;20030;-62
2021/05/22 22:51:51;;;;;;;;;;;8.90;99.90;;;;;;10575256;28;20299;-61
2021/05/22 22:56:53;;;;;;;;;;;9.10;99.90;;;;;;10573377;28;19928;-62
2021/05/22 23:01:54;;;;;;;;;;;9.70;99.90;;;;;;10574833;28;20385;-63
2021/05/22 23:06:59;;;;;;;;;;;9.20;99.90;;;;;;10573294;28;20369;-62
2021/05/22 23:12:03;;;;;;;;;;;9.20;99.90;;;;;;10572475;28;19935;-61
2021/05/22 23:17:05;;;;;;;;;;;9.20;99.90;;;;;;10571928;28;19924;-62
2021/05/22 23:22:07;;;;;;;;;;;9.30;99.90;;;;;;10574136;28;20018;-62
2021/05/22 23:27:08;;;;;;;;;;;9.30;99.90;;;;;;10575179;28;19927;-62
2021/05/22 23:32:09;;;;;;;;;;;9.30;99.90;;;;;;10574885;28;19963;-61
2021/05/22 23:37:11;;;;;;;;;;;9.20;99.90;;;;;;10573611;28;19924;-61
2021/05/22 23:42:12;;;;;;;;;;;9.20;99.90;;;;;;10573559;28;19927;-61
2021/05/22 23:47:14;;;;;;;;;;;9.20;99.90;;;;;;10576695;28;20010;-62
2021/05/22 23:52:16;;;;;;;;;;;9.20;99.90;;;;;;10582816;28;19936;-61
2021/05/22 23:57:17;;;;;;;;;;;9.20;99.90;;;;;;10581786;28;20375;-64
